createdAt,value
2023-02-20T00:02:01.570Z,55.38
2023-02-20T00:04:29.125Z,55.25
2023-02-20T00:06:55.465Z,55.13
2023-02-20T00:09:21.841Z,55.34
2023-02-20T00:11:48.290Z,55.36
2023-02-20T00:14:14.560Z,55.17
2023-02-20T00:16:40.956Z,55.14
2023-02-20T00:19:07.261Z,55.06
2023-02-20T00:21:33.677Z,55.34
2023-02-20T00:24:00.085Z,55.43
2023-02-20T00:26:26.420Z,55.36
2023-02-20T00:28:52.677Z,55.26
2023-02-20T00:31:19.051Z,55.25
2023-02-20T00:33:45.483Z,55.45
2023-02-20T00:36:12.186Z,55.33
2023-02-20T00:38:38.640Z,55.46
2023-02-20T00:41:04.955Z,55.45
2023-02-20T00:43:31.638Z,55.39
2023-02-20T00:45:58.009Z,55.41
2023-02-20T00:48:24.313Z,55.37
2023-02-20T00:50:50.637Z,55.32
2023-02-20T00:53:16.964Z,55.54
2023-02-20T00:55:43.543Z,55.35
2023-02-20T00:58:10.176Z,55.11
2023-02-20T01:00:36.867Z,55.21
2023-02-20T01:03:03.402Z,55.22
2023-02-20T01:05:29.766Z,55.29
2023-02-20T01:07:56.124Z,55.27
2023-02-20T01:10:22.517Z,54.99
2023-02-20T01:12:48.961Z,55.48
2023-02-20T01:15:15.292Z,55.31
2023-02-20T01:17:41.661Z,55.27
2023-02-20T01:20:08.189Z,55.19
2023-02-20T01:22:34.771Z,55.26
2023-02-20T01:25:01.216Z,55.18
2023-02-20T01:27:28.315Z,55.15
2023-02-20T01:29:54.687Z,55.23
2023-02-20T01:32:21.467Z,55.34
2023-02-20T01:34:48.096Z,55.10
2023-02-20T01:37:14.872Z,55.12
2023-02-20T01:39:41.760Z,55.33
2023-02-20T01:42:08.121Z,55.29
2023-02-20T01:44:34.517Z,55.03
2023-02-20T01:47:00.976Z,55.18
2023-02-20T01:49:27.734Z,55.18
2023-02-20T01:51:54.047Z,55.20
2023-02-20T01:54:20.356Z,55.25
2023-02-20T01:56:46.725Z,55.09
2023-02-20T01:59:13.053Z,55.25
2023-02-20T02:01:39.787Z,55.02
2023-02-20T02:04:06.950Z,55.11
2023-02-20T02:06:34.285Z,55.26
2023-02-20T02:09:01.336Z,55.09
2023-02-20T02:11:27.722Z,55.06
2023-02-20T02:13:54.588Z,55.27
2023-02-20T02:16:20.982Z,55.19
2023-02-20T02:18:47.567Z,55.11
2023-02-20T02:21:14.045Z,55.26
2023-02-20T02:23:40.671Z,55.00
2023-02-20T02:26:07.274Z,55.26
2023-02-20T02:28:33.911Z,55.02
2023-02-20T02:31:00.424Z,55.00
2023-02-20T02:33:26.873Z,55.08
2023-02-20T02:35:53.519Z,55.02
2023-02-20T02:38:19.962Z,55.16
2023-02-20T02:40:46.437Z,54.92
2023-02-20T02:43:12.924Z,55.26
2023-02-20T02:45:39.626Z,54.96
2023-02-20T02:48:06.007Z,55.07
2023-02-20T02:50:32.739Z,55.20
2023-02-20T02:52:59.302Z,54.97
2023-02-20T02:55:25.686Z,55.09
2023-02-20T02:57:52.161Z,55.18
2023-02-20T03:00:18.502Z,55.09
2023-02-20T03:02:45.043Z,54.82
2023-02-20T03:05:11.468Z,55.14
2023-02-20T03:07:37.776Z,55.09
2023-02-20T03:10:04.126Z,55.03
2023-02-20T03:12:30.594Z,54.91
2023-02-20T03:14:57.220Z,54.87
2023-02-20T03:17:23.573Z,55.05
2023-02-20T03:19:49.916Z,55.31
2023-02-20T03:22:16.454Z,54.74
2023-02-20T03:24:43.267Z,55.00
2023-02-20T03:27:09.580Z,54.79
2023-02-20T03:29:36.435Z,55.05
2023-02-20T03:32:02.949Z,55.08
2023-02-20T03:34:29.498Z,55.30
2023-02-20T03:36:55.958Z,55.01
2023-02-20T03:39:22.676Z,55.21
2023-02-20T03:41:49.286Z,55.21
2023-02-20T03:44:15.926Z,54.98
2023-02-20T03:46:42.248Z,55.02
2023-02-20T03:49:08.566Z,55.21
2023-02-20T03:51:34.944Z,55.00
2023-02-20T03:54:01.375Z,54.95
2023-02-20T03:56:27.748Z,55.12
2023-02-20T03:58:54.416Z,55.12
2023-02-20T04:01:20.825Z,54.92
2023-02-20T04:03:47.867Z,55.30
2023-02-20T04:06:14.593Z,54.96
2023-02-20T04:08:41.205Z,54.90
2023-02-20T04:11:08.126Z,55.39
2023-02-20T04:13:34.494Z,55.11
2023-02-20T04:16:00.878Z,55.29
2023-02-20T04:18:27.914Z,55.16
2023-02-20T04:20:54.301Z,55.19
2023-02-20T04:23:20.753Z,55.40
2023-02-20T04:25:47.577Z,55.27
2023-02-20T04:28:14.219Z,55.32
2023-02-20T04:30:40.692Z,55.02
2023-02-20T04:33:07.079Z,55.14
2023-02-20T04:35:33.509Z,54.83
2023-02-20T04:38:00.093Z,55.26
2023-02-20T04:40:26.495Z,55.26
2023-02-20T04:42:53.172Z,55.23
2023-02-20T04:45:19.524Z,55.16
2023-02-20T04:47:45.837Z,55.42
2023-02-20T04:50:12.312Z,55.51
2023-02-20T04:52:38.633Z,55.27
2023-02-20T04:55:04.988Z,55.34
2023-02-20T04:57:31.459Z,55.22
2023-02-20T04:59:58.248Z,55.36
2023-02-20T05:02:25.210Z,55.41
2023-02-20T05:04:51.664Z,55.49
2023-02-20T05:07:18.528Z,55.13
2023-02-20T05:09:45.041Z,55.43
2023-02-20T05:12:11.448Z,55.53
2023-02-20T05:14:37.813Z,55.27
2023-02-20T05:17:04.245Z,55.54
2023-02-20T05:19:31.231Z,55.25
2023-02-20T05:21:57.915Z,55.44
2023-02-20T05:24:24.294Z,55.44
2023-02-20T05:26:50.903Z,55.41
2023-02-20T05:29:17.863Z,55.43
2023-02-20T05:31:44.389Z,55.21
2023-02-20T05:34:10.867Z,55.45
2023-02-20T05:36:37.158Z,55.45
2023-02-20T05:39:03.714Z,55.61
2023-02-20T05:41:30.236Z,55.32
2023-02-20T05:43:56.579Z,55.30
2023-02-20T05:46:23.054Z,55.40
2023-02-20T05:48:49.816Z,55.55
2023-02-20T05:51:16.779Z,55.37
2023-02-20T05:53:43.113Z,55.64
2023-02-20T05:56:09.538Z,55.62
2023-02-20T05:58:35.990Z,55.82
2023-02-20T06:01:02.567Z,55.57
2023-02-20T06:03:29.111Z,55.59
2023-02-20T06:05:55.483Z,55.71
2023-02-20T06:08:21.818Z,55.64
2023-02-20T06:10:48.372Z,55.63
2023-02-20T06:13:14.788Z,55.86
2023-02-20T06:15:41.112Z,55.46
2023-02-20T06:18:07.575Z,55.67
2023-02-20T06:20:33.919Z,55.41
2023-02-20T06:23:00.873Z,55.74
2023-02-20T06:25:27.679Z,55.78
2023-02-20T06:27:53.992Z,55.61
2023-02-20T06:30:20.374Z,55.82
2023-02-20T06:32:47.367Z,55.82
2023-02-20T06:35:13.997Z,55.75
2023-02-20T06:37:40.344Z,55.87
2023-02-20T06:40:06.768Z,55.82
2023-02-20T06:42:33.301Z,55.64
2023-02-20T06:44:59.618Z,55.84
2023-02-20T06:47:26.014Z,55.84
2023-02-20T06:49:52.598Z,55.87
2023-02-20T06:52:19.225Z,55.71
2023-02-20T06:54:45.848Z,55.63
2023-02-20T06:57:12.264Z,55.89
2023-02-20T06:59:38.679Z,55.98
2023-02-20T07:02:05.277Z,55.80
2023-02-20T07:04:31.811Z,56.14
2023-02-20T07:06:58.212Z,55.69
2023-02-20T07:09:25.022Z,56.12
2023-02-20T07:11:51.441Z,56.03
2023-02-20T07:14:17.862Z,56.00
2023-02-20T07:16:44.320Z,55.88
2023-02-20T07:19:10.653Z,55.95
2023-02-20T07:21:37.057Z,56.21
2023-02-20T07:24:03.459Z,55.47
2023-02-20T07:26:30.102Z,56.17
2023-02-20T07:28:56.648Z,56.05
2023-02-20T07:31:23.021Z,55.75
2023-02-20T07:33:49.764Z,55.78
2023-02-20T07:36:16.094Z,55.66
2023-02-20T07:38:42.402Z,55.84
2023-02-20T07:41:08.772Z,55.62
2023-02-20T07:43:35.641Z,55.72
2023-02-20T07:46:02.044Z,55.69
2023-02-20T07:48:28.406Z,55.75
2023-02-20T07:50:54.878Z,55.88
2023-02-20T07:53:21.231Z,55.93
2023-02-20T07:55:47.652Z,56.02
2023-02-20T07:58:14.096Z,56.01
2023-02-20T08:00:40.459Z,55.79
2023-02-20T08:03:07.653Z,56.04
2023-02-20T08:05:48.093Z,55.96
2023-02-20T08:08:15.647Z,56.08
2023-02-20T08:10:42.229Z,56.08
2023-02-20T08:13:08.823Z,56.10
2023-02-20T08:15:35.590Z,56.16
2023-02-20T08:18:03.336Z,56.06
2023-02-20T08:20:30.757Z,56.14
2023-02-20T08:22:57.255Z,56.06
2023-02-20T08:25:23.722Z,56.14
2023-02-20T08:27:50.273Z,55.68
2023-02-20T08:30:16.864Z,55.82
2023-02-20T08:32:43.705Z,56.04
2023-02-20T08:35:10.166Z,56.02
2023-02-20T08:37:36.501Z,55.87
2023-02-20T08:40:02.862Z,56.06
2023-02-20T08:42:29.363Z,56.12
2023-02-20T08:44:55.735Z,56.30
2023-02-20T08:47:22.101Z,56.06
2023-02-20T08:49:48.430Z,56.27
2023-02-20T08:52:14.959Z,56.19
2023-02-20T08:54:41.472Z,56.13
2023-02-20T08:57:07.813Z,56.29
2023-02-20T08:59:34.201Z,56.05
2023-02-20T09:02:00.650Z,55.98
2023-02-20T09:04:27.098Z,56.21
2023-02-20T09:06:53.501Z,56.11
2023-02-20T09:09:19.826Z,56.31
2023-02-20T09:11:46.305Z,56.51
2023-02-20T09:14:12.764Z,56.42
2023-02-20T09:16:39.084Z,56.26
2023-02-20T09:19:05.417Z,56.30
2023-02-20T09:21:31.888Z,56.52
2023-02-20T09:23:58.425Z,56.26
2023-02-20T09:26:25.123Z,56.30
2023-02-20T09:28:51.478Z,56.35
2023-02-20T09:31:17.836Z,56.37
2023-02-20T09:33:44.242Z,56.40
2023-02-20T09:36:10.899Z,56.60
2023-02-20T09:38:37.598Z,56.62
2023-02-20T09:41:04.022Z,56.45
2023-02-20T09:43:30.356Z,56.54
2023-02-20T09:45:56.889Z,56.40
2023-02-20T09:48:23.302Z,56.33
2023-02-20T09:50:49.723Z,56.54
2023-02-20T09:53:16.081Z,56.62
2023-02-20T09:55:42.442Z,56.56
2023-02-20T09:58:08.762Z,56.55
2023-02-20T10:00:35.238Z,56.47
2023-02-20T10:03:01.964Z,56.55
2023-02-20T10:05:28.261Z,56.40
2023-02-20T10:07:54.930Z,56.61
2023-02-20T10:10:21.214Z,56.84
2023-02-20T10:12:47.629Z,56.29
2023-02-20T10:15:14.024Z,56.70
2023-02-20T10:17:40.507Z,56.83
2023-02-20T10:20:07.313Z,56.50
2023-02-20T10:22:33.939Z,56.57
2023-02-20T10:25:00.261Z,56.88
2023-02-20T10:27:26.663Z,56.71
2023-02-20T10:29:52.989Z,56.59
2023-02-20T10:32:19.395Z,56.97
2023-02-20T10:34:46.086Z,57.00
2023-02-20T10:37:12.534Z,56.85
2023-02-20T10:39:39.555Z,56.82
2023-02-20T10:42:05.920Z,56.70
2023-02-20T10:44:35.512Z,57.08
2023-02-20T10:47:06.883Z,57.09
2023-02-20T10:49:33.328Z,56.95
2023-02-20T10:51:59.784Z,56.46
2023-02-20T10:54:26.113Z,56.67
2023-02-20T10:56:52.629Z,57.12
2023-02-20T10:59:19.037Z,56.63
2023-02-20T11:01:45.403Z,57.33
2023-02-20T11:04:12.120Z,57.28
2023-02-20T11:06:38.516Z,57.02
2023-02-20T11:09:04.925Z,56.98
2023-02-20T11:11:31.465Z,57.27
2023-02-20T11:13:58.191Z,57.19
2023-02-20T11:16:24.801Z,56.95
2023-02-20T11:18:51.257Z,57.02
2023-02-20T11:21:17.625Z,56.97
2023-02-20T11:23:44.075Z,56.84
2023-02-20T11:26:10.896Z,57.26
2023-02-20T11:28:37.378Z,57.00
2023-02-20T11:31:03.765Z,57.27
2023-02-20T11:33:30.363Z,57.21
2023-02-20T11:35:56.888Z,57.17
2023-02-20T11:38:23.299Z,57.35
2023-02-20T11:40:49.753Z,57.00
2023-02-20T11:43:16.232Z,56.97
2023-02-20T11:45:42.745Z,57.43
2023-02-20T11:48:09.062Z,57.30
2023-02-20T11:50:35.414Z,57.07
2023-02-20T11:53:01.907Z,57.60
2023-02-20T11:55:28.450Z,57.39
2023-02-20T11:57:54.815Z,57.38
2023-02-20T12:00:21.273Z,57.09
2023-02-20T12:02:47.709Z,57.37
2023-02-20T12:05:14.174Z,57.50
2023-02-20T12:07:40.525Z,57.53
2023-02-20T12:10:06.841Z,57.54
2023-02-20T12:12:33.183Z,57.60
2023-02-20T12:14:59.821Z,57.74
2023-02-20T12:17:26.355Z,57.63
2023-02-20T12:19:52.688Z,57.74
2023-02-20T12:22:19.163Z,57.98
2023-02-20T12:24:45.660Z,58.20
2023-02-20T12:27:12.047Z,59.09
2023-02-20T12:29:38.379Z,59.47
2023-02-20T12:32:05.145Z,59.63
2023-02-20T12:34:31.624Z,60.10
2023-02-20T12:36:58.308Z,60.46
2023-02-20T12:39:25.026Z,60.45
2023-02-20T12:41:51.314Z,60.87
2023-02-20T12:44:17.704Z,60.63
2023-02-20T12:46:44.103Z,61.08
2023-02-20T12:49:10.608Z,61.04
2023-02-20T12:51:36.926Z,61.05
2023-02-20T12:54:03.306Z,60.95
2023-02-20T12:56:29.681Z,60.88
2023-02-20T12:58:56.248Z,60.88
2023-02-20T13:01:34.325Z,60.84
2023-02-20T13:04:05.444Z,60.73
2023-02-20T13:06:31.840Z,61.11
2023-02-20T13:08:58.268Z,61.06
2023-02-20T13:11:24.677Z,61.27
2023-02-20T13:13:51.386Z,61.03
2023-02-20T13:16:17.789Z,61.41
2023-02-20T13:18:44.276Z,61.51
2023-02-20T13:21:10.850Z,61.32
2023-02-20T13:23:37.282Z,61.58
2023-02-20T13:26:03.961Z,61.70
2023-02-20T13:28:30.318Z,61.40
2023-02-20T13:30:56.653Z,61.60
2023-02-20T13:33:23.069Z,61.37
2023-02-20T13:35:49.494Z,61.80
2023-02-20T13:38:15.961Z,61.96
2023-02-20T13:40:42.382Z,62.07
2023-02-20T13:43:08.824Z,61.75
2023-02-20T13:45:35.169Z,62.09
2023-02-20T13:48:01.573Z,62.15
2023-02-20T13:50:28.026Z,61.86
2023-02-20T13:52:54.418Z,62.06
2023-02-20T13:55:21.227Z,62.03
2023-02-20T13:57:47.677Z,62.30
2023-02-20T14:00:14.537Z,61.87
2023-02-20T14:02:40.916Z,61.66
2023-02-20T14:05:07.635Z,62.03
2023-02-20T14:07:34.202Z,61.82
2023-02-20T14:10:01.048Z,61.78
2023-02-20T14:12:28.004Z,61.78
2023-02-20T14:14:54.541Z,62.05
2023-02-20T14:17:20.980Z,61.49
2023-02-20T14:19:47.419Z,62.17
2023-02-20T14:22:13.776Z,62.25
2023-02-20T14:24:40.371Z,61.95
2023-02-20T14:27:06.698Z,61.81
2023-02-20T14:29:33.198Z,62.03
2023-02-20T14:31:59.860Z,62.08
2023-02-20T14:34:26.398Z,62.07
2023-02-20T14:36:53.141Z,62.15
2023-02-20T14:39:19.727Z,61.84
2023-02-20T14:41:46.048Z,61.95
2023-02-20T14:44:12.439Z,62.18
2023-02-20T14:46:38.996Z,61.89
2023-02-20T14:49:05.326Z,62.06
2023-02-20T14:51:31.654Z,61.98
2023-02-20T14:53:58.059Z,61.93
2023-02-20T14:56:24.616Z,62.11
2023-02-20T14:58:51.380Z,62.07
2023-02-20T15:01:17.823Z,62.12
2023-02-20T15:03:44.494Z,62.20
2023-02-20T15:06:11.229Z,62.44
2023-02-20T15:08:38.058Z,62.29
2023-02-20T15:11:04.424Z,62.25
2023-02-20T15:13:30.768Z,62.20
2023-02-20T15:15:57.245Z,61.92
2023-02-20T15:18:24.790Z,62.02
2023-02-20T15:20:51.184Z,62.28
2023-02-20T15:23:17.618Z,62.38
2023-02-20T15:25:43.934Z,62.52
2023-02-20T15:28:10.589Z,62.35
2023-02-20T15:30:37.009Z,61.75
2023-02-20T15:33:03.690Z,61.67
2023-02-20T15:35:30.167Z,61.43
2023-02-20T15:37:56.486Z,61.16
2023-02-20T15:40:23.042Z,61.19
2023-02-20T15:42:49.440Z,60.73
2023-02-20T15:45:16.097Z,60.84
2023-02-20T15:47:42.469Z,60.80
2023-02-20T15:50:08.805Z,60.62
2023-02-20T15:52:35.337Z,60.67
2023-02-20T15:55:01.728Z,60.85
2023-02-20T15:57:28.367Z,60.67
2023-02-20T15:59:55.393Z,60.84
2023-02-20T16:02:22.030Z,60.81
2023-02-20T16:04:48.475Z,60.51
2023-02-20T16:07:15.295Z,60.43
2023-02-20T16:09:42.055Z,60.39
2023-02-20T16:12:08.548Z,60.24
2023-02-20T16:14:34.940Z,60.16
2023-02-20T16:17:01.418Z,59.83
2023-02-20T16:19:40.058Z,60.12
2023-02-20T16:22:08.530Z,60.17
2023-02-20T16:24:34.989Z,59.95
2023-02-20T16:27:01.324Z,59.86
2023-02-20T16:29:27.925Z,59.80
2023-02-20T16:31:54.400Z,59.92
2023-02-20T16:34:22.067Z,60.01
2023-02-20T16:36:49.074Z,60.00
2023-02-20T16:39:25.688Z,59.91
2023-02-20T16:41:52.528Z,59.83
2023-02-20T16:44:19.536Z,59.78
2023-02-20T16:46:46.056Z,59.88
2023-02-20T16:49:12.400Z,59.92
2023-02-20T16:51:39.014Z,60.20
2023-02-20T16:54:05.908Z,60.05
2023-02-20T16:56:32.342Z,60.26
2023-02-20T16:58:58.780Z,60.16
2023-02-20T17:01:25.377Z,60.42
2023-02-20T17:03:51.897Z,60.15
2023-02-20T17:06:18.249Z,60.45
2023-02-20T17:08:44.618Z,60.04
2023-02-20T17:11:12.009Z,60.32
2023-02-20T17:13:38.686Z,60.45
2023-02-20T17:16:05.231Z,60.61
2023-02-20T17:18:32.056Z,60.95
2023-02-20T17:20:59.123Z,60.67
2023-02-20T17:23:26.231Z,60.69
2023-02-20T17:25:53.360Z,61.17
2023-02-20T17:28:19.722Z,61.09
2023-02-20T17:30:46.116Z,60.79
2023-02-20T17:33:12.900Z,60.83
2023-02-20T17:35:39.372Z,61.18
2023-02-20T17:38:06.315Z,60.80
2023-02-20T17:40:32.679Z,61.32
2023-02-20T17:42:59.336Z,61.08
2023-02-20T17:45:25.663Z,60.94
2023-02-20T17:47:52.232Z,61.03
2023-02-20T17:50:18.603Z,61.14
2023-02-20T17:52:45.283Z,61.11
2023-02-20T17:55:11.667Z,61.29
2023-02-20T17:57:38.012Z,61.24
2023-02-20T18:00:04.417Z,61.15
2023-02-20T18:02:30.899Z,61.44
2023-02-20T18:04:57.275Z,61.05
2023-02-20T18:07:23.728Z,60.95
2023-02-20T18:09:50.188Z,60.78
2023-02-20T18:12:17.009Z,60.94
2023-02-20T18:14:43.530Z,60.94
2023-02-20T18:17:09.969Z,61.04
2023-02-20T18:19:36.360Z,60.85
2023-02-20T18:22:02.984Z,60.33
2023-02-20T18:24:30.498Z,60.61
2023-02-20T18:26:56.924Z,60.37
2023-02-20T18:29:23.718Z,59.89
2023-02-20T18:31:50.351Z,59.90
2023-02-20T18:34:16.862Z,59.67
2023-02-20T18:36:43.371Z,59.48
2023-02-20T18:39:09.815Z,59.33
2023-02-20T18:41:36.221Z,58.88
2023-02-20T18:44:02.963Z,58.96
2023-02-20T18:46:29.335Z,58.69
2023-02-20T18:48:56.154Z,58.46
2023-02-20T18:51:25.010Z,58.70
2023-02-20T18:53:51.567Z,58.54
2023-02-20T18:56:18.118Z,58.27
2023-02-20T18:58:44.514Z,58.18
2023-02-20T19:01:11.307Z,58.00
2023-02-20T19:03:38.059Z,57.86
2023-02-20T19:06:04.433Z,57.98
2023-02-20T19:08:31.651Z,57.98
2023-02-20T19:10:58.407Z,57.69
2023-02-20T19:13:24.794Z,57.90
2023-02-20T19:15:51.158Z,57.83
2023-02-20T19:18:17.978Z,57.63
2023-02-20T19:20:44.261Z,57.39
2023-02-20T19:23:10.838Z,57.51
2023-02-20T19:25:37.162Z,57.54
2023-02-20T19:28:03.568Z,57.65
2023-02-20T19:30:30.268Z,57.74
2023-02-20T19:32:57.218Z,57.60
2023-02-20T19:35:23.568Z,57.27
2023-02-20T19:37:50.317Z,57.19
2023-02-20T19:40:16.932Z,57.36
2023-02-20T19:42:43.328Z,57.54
2023-02-20T19:45:09.701Z,57.25
2023-02-20T19:47:36.207Z,57.19
2023-02-20T19:50:02.719Z,57.22
2023-02-20T19:52:29.893Z,57.26
2023-02-20T19:54:56.311Z,57.31
2023-02-20T19:57:22.912Z,57.34
2023-02-20T19:59:49.327Z,57.39
2023-02-20T20:02:15.758Z,57.08
2023-02-20T20:04:42.611Z,57.02
2023-02-20T20:07:09.507Z,56.84
2023-02-20T20:09:37.596Z,57.11
2023-02-20T20:12:04.351Z,56.90
2023-02-20T20:14:30.734Z,57.14
2023-02-20T20:16:57.062Z,57.05
2023-02-20T20:19:23.448Z,56.76
2023-02-20T20:21:49.855Z,56.70
2023-02-20T20:24:16.539Z,56.70
2023-02-20T20:26:42.929Z,56.91
2023-02-20T20:29:09.630Z,57.03
2023-02-20T20:31:36.079Z,56.69
2023-02-20T20:34:02.533Z,56.85
2023-02-20T20:36:29.282Z,56.80
2023-02-20T20:38:55.781Z,56.78
2023-02-20T20:41:22.844Z,57.07
2023-02-20T20:43:50.056Z,56.92
2023-02-20T20:46:16.965Z,56.86
2023-02-20T20:48:43.441Z,57.04
2023-02-20T20:51:09.773Z,57.23
2023-02-20T20:53:36.615Z,57.33
2023-02-20T20:56:02.913Z,57.02
2023-02-20T20:58:29.642Z,57.12
2023-02-20T21:00:56.218Z,57.18
2023-02-20T21:03:22.695Z,57.22
2023-02-20T21:05:49.378Z,57.25
2023-02-20T21:08:15.754Z,57.16
2023-02-20T21:10:42.858Z,56.81
2023-02-20T21:13:09.229Z,57.26
2023-02-20T21:15:35.594Z,57.26
2023-02-20T21:18:02.212Z,57.09
2023-02-20T21:20:28.749Z,57.36
2023-02-20T21:22:55.277Z,57.02
2023-02-20T21:25:21.674Z,57.22
2023-02-20T21:27:48.483Z,57.22
2023-02-20T21:30:15.255Z,57.32
2023-02-20T21:32:41.794Z,57.45
2023-02-20T21:35:08.375Z,57.38
2023-02-20T21:37:35.141Z,57.31
2023-02-20T21:40:01.511Z,57.09
2023-02-20T21:42:28.212Z,57.33
2023-02-20T21:44:55.019Z,57.36
2023-02-20T21:47:21.362Z,57.46
2023-02-20T21:49:47.728Z,57.44
2023-02-20T21:52:14.096Z,57.31
2023-02-20T21:54:40.418Z,57.41
2023-02-20T21:57:07.169Z,57.29
2023-02-20T21:59:33.528Z,57.56
2023-02-20T22:01:59.990Z,57.44
2023-02-20T22:04:26.462Z,56.98
2023-02-20T22:06:52.911Z,57.50
2023-02-20T22:09:19.327Z,57.37
2023-02-20T22:11:45.912Z,57.13
2023-02-20T22:14:12.677Z,57.28
2023-02-20T22:16:38.994Z,57.43
2023-02-20T22:19:05.373Z,57.37
2023-02-20T22:21:32.152Z,57.66
2023-02-20T22:23:58.461Z,57.40
2023-02-20T22:26:25.487Z,57.54
2023-02-20T22:28:51.950Z,57.80
2023-02-20T22:31:18.797Z,57.47
2023-02-20T22:33:45.223Z,57.29
2023-02-20T22:36:11.709Z,57.78
2023-02-20T22:38:38.156Z,57.38
2023-02-20T22:41:04.518Z,57.65
2023-02-20T22:43:30.963Z,57.76
2023-02-20T22:45:57.419Z,57.44
2023-02-20T22:48:23.750Z,57.32
2023-02-20T22:50:50.280Z,57.53
2023-02-20T22:53:17.005Z,57.41
2023-02-20T22:55:43.313Z,57.46
2023-02-20T22:58:09.945Z,57.50
2023-02-20T23:00:36.637Z,57.26
2023-02-20T23:03:03.469Z,57.57
2023-02-20T23:05:30.253Z,57.46
2023-02-20T23:07:56.555Z,57.71
2023-02-20T23:10:22.897Z,57.66
2023-02-20T23:12:49.263Z,57.87
2023-02-20T23:15:17.012Z,57.86
2023-02-20T23:17:43.923Z,57.54
2023-02-20T23:20:10.605Z,57.59
2023-02-20T23:22:37.307Z,57.76
2023-02-20T23:25:03.701Z,57.39
2023-02-20T23:27:30.075Z,57.61
2023-02-20T23:29:56.495Z,58.00
2023-02-20T23:32:22.878Z,57.67
2023-02-20T23:34:49.343Z,57.87
2023-02-20T23:37:15.786Z,57.77
2023-02-20T23:39:42.338Z,57.78
2023-02-20T23:42:08.709Z,58.17
2023-02-20T23:44:35.174Z,57.62
2023-02-20T23:47:01.614Z,57.80
2023-02-20T23:49:27.976Z,57.76
2023-02-20T23:51:54.554Z,58.03
2023-02-20T23:54:21.105Z,57.89
2023-02-20T23:56:47.466Z,57.79
2023-02-20T23:59:13.844Z,57.46
